sensor_id;sensor_type;location;lat;lon;timestamp;P1;durP1;ratioP1;P2;durP2;ratioP2
71108;SDS011;59614;51.012;-1.648;2023-08-17T00:01:47;13.70;;;7.65;;
71108;SDS011;59614;51.012;-1.648;2023-08-17T00:04:12;13.27;;;7.20;;
71108;SDS011;59614;51.012;-1.648;2023-08-17T00:06:38;16.52;;;8.43;;
71108;SDS011;59614;51.012;-1.648;2023-08-17T00:09:03;15.43;;;8.85;;
71108;SDS011;59614;51.012;-1.648;2023-08-17T00:11:29;13.52;;;8.25;;
71108;SDS011;59614;51.012;-1.648;2023-08-17T00:13:54;13.18;;;8.27;;
71108;SDS011;59614;51.012;-1.648;2023-08-17T00:16:20;14.73;;;8.85;;
71108;SDS011;59614;51.012;-1.648;2023-08-17T00:18:45;13.63;;;7.70;;
71108;SDS011;59614;51.012;-1.648;2023-08-17T00:21:13;11.07;;;7.00;;
71108;SDS011;59614;51.012;-1.648;2023-08-17T00:23:38;10.30;;;6.10;;
71108;SDS011;59614;51.012;-1.648;2023-08-17T00:26:04;10.65;;;5.38;;
71108;SDS011;59614;51.012;-1.648;2023-08-17T00:28:29;12.98;;;4.78;;
71108;SDS011;59614;51.012;-1.648;2023-08-17T00:30:54;9.30;;;4.20;;
71108;SDS011;59614;51.012;-1.648;2023-08-17T00:33:20;7.13;;;3.75;;
71108;SDS011;59614;51.012;-1.648;2023-08-17T00:35:45;9.05;;;3.30;;
71108;SDS011;59614;51.012;-1.648;2023-08-17T00:38:11;9.73;;;3.72;;
71108;SDS011;59614;51.012;-1.648;2023-08-17T00:40:38;7.20;;;3.58;;
71108;SDS011;59614;51.012;-1.648;2023-08-17T00:43:04;7.97;;;3.97;;
71108;SDS011;59614;51.012;-1.648;2023-08-17T00:45:30;9.63;;;3.95;;
71108;SDS011;59614;51.012;-1.648;2023-08-17T00:47:58;6.93;;;3.20;;
71108;SDS011;59614;51.012;-1.648;2023-08-17T00:50:24;6.28;;;2.92;;
71108;SDS011;59614;51.012;-1.648;2023-08-17T00:52:53;4.00;;;2.60;;
71108;SDS011;59614;51.012;-1.648;2023-08-17T00:55:20;4.15;;;2.60;;
71108;SDS011;59614;51.012;-1.648;2023-08-17T00:57:46;5.15;;;2.70;;
71108;SDS011;59614;51.012;-1.648;2023-08-17T01:00:12;5.78;;;2.63;;
71108;SDS011;59614;51.012;-1.648;2023-08-17T01:02:39;4.72;;;2.47;;
71108;SDS011;59614;51.012;-1.648;2023-08-17T01:05:06;5.45;;;2.67;;
71108;SDS011;59614;51.012;-1.648;2023-08-17T01:07:32;6.82;;;2.65;;
71108;SDS011;59614;51.012;-1.648;2023-08-17T01:09:57;4.70;;;2.67;;
71108;SDS011;59614;51.012;-1.648;2023-08-17T01:12:30;4.32;;;2.40;;
71108;SDS011;59614;51.012;-1.648;2023-08-17T01:17:37;4.50;;;2.40;;
71108;SDS011;59614;51.012;-1.648;2023-08-17T01:20:08;6.30;;;2.80;;
71108;SDS011;59614;51.012;-1.648;2023-08-17T01:22:37;4.35;;;2.50;;
71108;SDS011;59614;51.012;-1.648;2023-08-17T01:25:06;6.93;;;2.70;;
71108;SDS011;59614;51.012;-1.648;2023-08-17T01:27:36;4.82;;;2.40;;
71108;SDS011;59614;51.012;-1.648;2023-08-17T01:30:05;8.13;;;2.80;;
71108;SDS011;59614;51.012;-1.648;2023-08-17T01:37:50;6.57;;;2.97;;
71108;SDS011;59614;51.012;-1.648;2023-08-17T01:42:44;10.13;;;3.40;;
71108;SDS011;59614;51.012;-1.648;2023-08-17T01:45:10;6.38;;;3.00;;
71108;SDS011;59614;51.012;-1.648;2023-08-17T01:47:36;7.05;;;2.90;;
71108;SDS011;59614;51.012;-1.648;2023-08-17T01:50:01;6.43;;;3.25;;
71108;SDS011;59614;51.012;-1.648;2023-08-17T01:52:27;8.15;;;3.47;;
71108;SDS011;59614;51.012;-1.648;2023-08-17T01:54:53;7.78;;;3.58;;
71108;SDS011;59614;51.012;-1.648;2023-08-17T01:57:18;7.55;;;3.80;;
71108;SDS011;59614;51.012;-1.648;2023-08-17T01:59:44;7.63;;;3.78;;
71108;SDS011;59614;51.012;-1.648;2023-08-17T02:02:09;7.65;;;3.63;;
71108;SDS011;59614;51.012;-1.648;2023-08-17T02:04:36;7.75;;;3.42;;
71108;SDS011;59614;51.012;-1.648;2023-08-17T02:07:02;7.70;;;3.50;;
71108;SDS011;59614;51.012;-1.648;2023-08-17T02:09:28;7.05;;;3.58;;
71108;SDS011;59614;51.012;-1.648;2023-08-17T02:11:53;5.03;;;3.28;;
71108;SDS011;59614;51.012;-1.648;2023-08-17T02:14:18;7.60;;;3.50;;
71108;SDS011;59614;51.012;-1.648;2023-08-17T02:16:44;6.00;;;3.50;;
71108;SDS011;59614;51.012;-1.648;2023-08-17T02:19:09;7.20;;;3.72;;
71108;SDS011;59614;51.012;-1.648;2023-08-17T02:21:35;11.02;;;3.78;;
71108;SDS011;59614;51.012;-1.648;2023-08-17T02:24:00;9.30;;;4.15;;
71108;SDS011;59614;51.012;-1.648;2023-08-17T02:26:26;10.07;;;4.75;;
71108;SDS011;59614;51.012;-1.648;2023-08-17T02:28:51;10.02;;;5.35;;
71108;SDS011;59614;51.012;-1.648;2023-08-17T02:31:16;8.30;;;5.88;;
71108;SDS011;59614;51.012;-1.648;2023-08-17T02:33:42;11.73;;;5.68;;
71108;SDS011;59614;51.012;-1.648;2023-08-17T02:36:07;11.55;;;5.97;;
71108;SDS011;59614;51.012;-1.648;2023-08-17T02:38:33;15.05;;;6.15;;
71108;SDS011;59614;51.012;-1.648;2023-08-17T02:40:58;14.07;;;6.97;;
71108;SDS011;59614;51.012;-1.648;2023-08-17T02:43:23;13.38;;;7.10;;
71108;SDS011;59614;51.012;-1.648;2023-08-17T02:45:49;14.05;;;6.45;;
71108;SDS011;59614;51.012;-1.648;2023-08-17T02:48:14;19.80;;;7.38;;
71108;SDS011;59614;51.012;-1.648;2023-08-17T02:50:39;13.68;;;7.40;;
71108;SDS011;59614;51.012;-1.648;2023-08-17T02:53:05;13.07;;;7.95;;
71108;SDS011;59614;51.012;-1.648;2023-08-17T02:55:30;14.32;;;7.90;;
71108;SDS011;59614;51.012;-1.648;2023-08-17T02:57:56;11.50;;;7.70;;
71108;SDS011;59614;51.012;-1.648;2023-08-17T03:00:21;11.20;;;7.13;;
71108;SDS011;59614;51.012;-1.648;2023-08-17T03:02:46;14.98;;;8.18;;
71108;SDS011;59614;51.012;-1.648;2023-08-17T03:05:12;15.35;;;7.80;;
71108;SDS011;59614;51.012;-1.648;2023-08-17T03:07:37;13.02;;;8.13;;
71108;SDS011;59614;51.012;-1.648;2023-08-17T03:10:03;12.65;;;8.73;;
71108;SDS011;59614;51.012;-1.648;2023-08-17T03:12:28;17.92;;;10.20;;
71108;SDS011;59614;51.012;-1.648;2023-08-17T03:14:54;20.60;;;10.55;;
71108;SDS011;59614;51.012;-1.648;2023-08-17T03:17:19;21.75;;;10.60;;
71108;SDS011;59614;51.012;-1.648;2023-08-17T03:19:45;19.33;;;11.20;;
71108;SDS011;59614;51.012;-1.648;2023-08-17T03:22:10;19.38;;;10.45;;
71108;SDS011;59614;51.012;-1.648;2023-08-17T03:24:35;21.15;;;10.25;;
71108;SDS011;59614;51.012;-1.648;2023-08-17T03:27:01;16.00;;;10.55;;
71108;SDS011;59614;51.012;-1.648;2023-08-17T03:29:26;18.05;;;10.68;;
71108;SDS011;59614;51.012;-1.648;2023-08-17T03:31:52;20.50;;;11.80;;
71108;SDS011;59614;51.012;-1.648;2023-08-17T03:34:17;19.60;;;12.07;;
71108;SDS011;59614;51.012;-1.648;2023-08-17T03:36:43;26.08;;;14.15;;
71108;SDS011;59614;51.012;-1.648;2023-08-17T03:39:08;26.55;;;14.00;;
71108;SDS011;59614;51.012;-1.648;2023-08-17T03:41:34;26.25;;;14.88;;
71108;SDS011;59614;51.012;-1.648;2023-08-17T03:44:01;27.23;;;15.18;;
71108;SDS011;59614;51.012;-1.648;2023-08-17T03:46:28;35.17;;;17.25;;
71108;SDS011;59614;51.012;-1.648;2023-08-17T03:48:54;38.28;;;18.23;;
71108;SDS011;59614;51.012;-1.648;2023-08-17T03:51:19;48.50;;;19.42;;
71108;SDS011;59614;51.012;-1.648;2023-08-17T03:53:44;48.20;;;20.90;;
71108;SDS011;59614;51.012;-1.648;2023-08-17T03:56:10;45.92;;;21.33;;
71108;SDS011;59614;51.012;-1.648;2023-08-17T03:58:35;47.33;;;21.63;;
71108;SDS011;59614;51.012;-1.648;2023-08-17T04:01:01;57.05;;;24.42;;
71108;SDS011;59614;51.012;-1.648;2023-08-17T04:03:27;53.92;;;23.13;;
71108;SDS011;59614;51.012;-1.648;2023-08-17T04:05:52;63.47;;;25.42;;
71108;SDS011;59614;51.012;-1.648;2023-08-17T04:08:18;56.28;;;25.10;;
71108;SDS011;59614;51.012;-1.648;2023-08-17T04:10:43;62.63;;;26.98;;
71108;SDS011;59614;51.012;-1.648;2023-08-17T04:13:08;67.03;;;26.27;;
71108;SDS011;59614;51.012;-1.648;2023-08-17T04:15:34;70.97;;;28.33;;
71108;SDS011;59614;51.012;-1.648;2023-08-17T04:17:59;68.00;;;27.02;;
71108;SDS011;59614;51.012;-1.648;2023-08-17T04:20:25;69.40;;;28.17;;
71108;SDS011;59614;51.012;-1.648;2023-08-17T04:22:50;71.82;;;29.65;;
71108;SDS011;59614;51.012;-1.648;2023-08-17T04:25:16;65.88;;;29.25;;
71108;SDS011;59614;51.012;-1.648;2023-08-17T04:27:41;65.75;;;27.58;;
71108;SDS011;59614;51.012;-1.648;2023-08-17T04:30:07;63.92;;;28.30;;
71108;SDS011;59614;51.012;-1.648;2023-08-17T04:32:34;63.20;;;26.98;;
71108;SDS011;59614;51.012;-1.648;2023-08-17T04:34:59;64.57;;;28.77;;
71108;SDS011;59614;51.012;-1.648;2023-08-17T04:37:24;59.20;;;26.85;;
71108;SDS011;59614;51.012;-1.648;2023-08-17T04:39:50;63.88;;;27.23;;
71108;SDS011;59614;51.012;-1.648;2023-08-17T04:42:16;58.28;;;27.05;;
71108;SDS011;59614;51.012;-1.648;2023-08-17T04:44:41;55.28;;;26.98;;
71108;SDS011;59614;51.012;-1.648;2023-08-17T04:47:07;55.38;;;26.70;;
71108;SDS011;59614;51.012;-1.648;2023-08-17T04:49:33;54.33;;;26.15;;
71108;SDS011;59614;51.012;-1.648;2023-08-17T04:51:58;59.25;;;26.83;;
71108;SDS011;59614;51.012;-1.648;2023-08-17T04:54:23;48.75;;;22.98;;
71108;SDS011;59614;51.012;-1.648;2023-08-17T04:56:49;47.90;;;24.50;;
71108;SDS011;59614;51.012;-1.648;2023-08-17T04:59:14;50.17;;;25.60;;
71108;SDS011;59614;51.012;-1.648;2023-08-17T05:01:40;55.25;;;25.00;;
71108;SDS011;59614;51.012;-1.648;2023-08-17T05:04:05;44.67;;;23.30;;
71108;SDS011;59614;51.012;-1.648;2023-08-17T05:06:31;50.45;;;25.10;;
71108;SDS011;59614;51.012;-1.648;2023-08-17T05:08:57;48.50;;;25.63;;
71108;SDS011;59614;51.012;-1.648;2023-08-17T05:11:22;45.35;;;23.80;;
71108;SDS011;59614;51.012;-1.648;2023-08-17T05:13:48;53.45;;;24.70;;
71108;SDS011;59614;51.012;-1.648;2023-08-17T05:16:14;45.88;;;24.55;;
71108;SDS011;59614;51.012;-1.648;2023-08-17T05:18:39;47.95;;;25.13;;
71108;SDS011;59614;51.012;-1.648;2023-08-17T05:21:05;47.67;;;25.75;;
71108;SDS011;59614;51.012;-1.648;2023-08-17T05:23:31;45.33;;;24.42;;
71108;SDS011;59614;51.012;-1.648;2023-08-17T05:25:56;47.05;;;24.05;;
71108;SDS011;59614;51.012;-1.648;2023-08-17T05:28:22;42.60;;;23.05;;
71108;SDS011;59614;51.012;-1.648;2023-08-17T05:30:48;43.88;;;23.95;;
71108;SDS011;59614;51.012;-1.648;2023-08-17T05:33:14;45.85;;;24.60;;
71108;SDS011;59614;51.012;-1.648;2023-08-17T05:35:39;42.17;;;23.92;;
71108;SDS011;59614;51.012;-1.648;2023-08-17T05:38:05;45.45;;;23.88;;
71108;SDS011;59614;51.012;-1.648;2023-08-17T05:40:30;47.67;;;25.25;;
71108;SDS011;59614;51.012;-1.648;2023-08-17T05:42:56;41.85;;;22.85;;
71108;SDS011;59614;51.012;-1.648;2023-08-17T05:45:22;37.50;;;22.38;;
71108;SDS011;59614;51.012;-1.648;2023-08-17T05:47:47;45.90;;;22.98;;
71108;SDS011;59614;51.012;-1.648;2023-08-17T05:50:12;43.20;;;23.02;;
71108;SDS011;59614;51.012;-1.648;2023-08-17T05:52:38;38.75;;;22.17;;
71108;SDS011;59614;51.012;-1.648;2023-08-17T05:55:03;38.75;;;21.90;;
71108;SDS011;59614;51.012;-1.648;2023-08-17T05:57:29;43.53;;;22.92;;
71108;SDS011;59614;51.012;-1.648;2023-08-17T05:59:55;41.30;;;23.85;;
71108;SDS011;59614;51.012;-1.648;2023-08-17T06:02:20;39.88;;;22.52;;
71108;SDS011;59614;51.012;-1.648;2023-08-17T06:04:47;35.70;;;21.90;;
71108;SDS011;59614;51.012;-1.648;2023-08-17T06:07:12;51.40;;;23.77;;
71108;SDS011;59614;51.012;-1.648;2023-08-17T06:09:38;41.42;;;22.98;;
71108;SDS011;59614;51.012;-1.648;2023-08-17T06:12:03;45.92;;;23.20;;
71108;SDS011;59614;51.012;-1.648;2023-08-17T06:14:29;41.60;;;21.63;;
71108;SDS011;59614;51.012;-1.648;2023-08-17T06:16:54;38.03;;;22.33;;
71108;SDS011;59614;51.012;-1.648;2023-08-17T06:19:20;37.20;;;21.38;;
71108;SDS011;59614;51.012;-1.648;2023-08-17T06:21:45;33.47;;;21.10;;
71108;SDS011;59614;51.012;-1.648;2023-08-17T06:24:11;37.42;;;22.00;;
71108;SDS011;59614;51.012;-1.648;2023-08-17T06:26:36;41.53;;;21.67;;
71108;SDS011;59614;51.012;-1.648;2023-08-17T06:29:01;36.33;;;21.95;;
71108;SDS011;59614;51.012;-1.648;2023-08-17T06:31:27;36.60;;;21.67;;
71108;SDS011;59614;51.012;-1.648;2023-08-17T06:33:55;30.27;;;19.95;;
71108;SDS011;59614;51.012;-1.648;2023-08-17T06:36:21;36.72;;;21.05;;
71108;SDS011;59614;51.012;-1.648;2023-08-17T06:38:46;37.55;;;19.77;;
71108;SDS011;59614;51.012;-1.648;2023-08-17T06:41:12;36.67;;;19.92;;
71108;SDS011;59614;51.012;-1.648;2023-08-17T06:43:38;29.55;;;19.27;;
71108;SDS011;59614;51.012;-1.648;2023-08-17T06:46:03;29.58;;;18.02;;
71108;SDS011;59614;51.012;-1.648;2023-08-17T06:48:29;38.00;;;20.08;;
71108;SDS011;59614;51.012;-1.648;2023-08-17T06:50:56;34.10;;;19.20;;
71108;SDS011;59614;51.012;-1.648;2023-08-17T06:53:22;30.70;;;17.52;;
71108;SDS011;59614;51.012;-1.648;2023-08-17T06:55:47;31.02;;;17.65;;
71108;SDS011;59614;51.012;-1.648;2023-08-17T06:58:12;25.90;;;17.08;;
71108;SDS011;59614;51.012;-1.648;2023-08-17T07:00:38;28.38;;;17.63;;
71108;SDS011;59614;51.012;-1.648;2023-08-17T07:03:05;25.05;;;16.83;;
71108;SDS011;59614;51.012;-1.648;2023-08-17T07:05:31;27.85;;;16.90;;
71108;SDS011;59614;51.012;-1.648;2023-08-17T07:07:57;27.63;;;16.58;;
71108;SDS011;59614;51.012;-1.648;2023-08-17T07:10:24;26.73;;;15.32;;
71108;SDS011;59614;51.012;-1.648;2023-08-17T07:12:49;27.20;;;15.65;;
71108;SDS011;59614;51.012;-1.648;2023-08-17T07:15:15;22.00;;;14.25;;
71108;SDS011;59614;51.012;-1.648;2023-08-17T07:17:40;20.65;;;13.95;;
71108;SDS011;59614;51.012;-1.648;2023-08-17T07:20:06;23.33;;;14.50;;
71108;SDS011;59614;51.012;-1.648;2023-08-17T07:22:32;26.38;;;13.90;;
71108;SDS011;59614;51.012;-1.648;2023-08-17T07:24:58;20.38;;;12.55;;
71108;SDS011;59614;51.012;-1.648;2023-08-17T07:27:23;18.95;;;13.13;;
71108;SDS011;59614;51.012;-1.648;2023-08-17T07:29:49;20.27;;;14.15;;
71108;SDS011;59614;51.012;-1.648;2023-08-17T07:32:14;23.95;;;13.77;;
71108;SDS011;59614;51.012;-1.648;2023-08-17T07:34:39;22.02;;;13.57;;
71108;SDS011;59614;51.012;-1.648;2023-08-17T07:37:05;26.42;;;14.57;;
71108;SDS011;59614;51.012;-1.648;2023-08-17T07:39:31;22.27;;;14.32;;
71108;SDS011;59614;51.012;-1.648;2023-08-17T07:41:56;23.50;;;14.70;;
71108;SDS011;59614;51.012;-1.648;2023-08-17T07:44:22;22.73;;;15.13;;
71108;SDS011;59614;51.012;-1.648;2023-08-17T07:46:47;20.70;;;14.10;;
71108;SDS011;59614;51.012;-1.648;2023-08-17T07:49:13;20.45;;;14.02;;
71108;SDS011;59614;51.012;-1.648;2023-08-17T07:51:38;26.65;;;14.80;;
71108;SDS011;59614;51.012;-1.648;2023-08-17T07:54:04;24.73;;;15.93;;
71108;SDS011;59614;51.012;-1.648;2023-08-17T07:56:29;23.00;;;16.17;;
71108;SDS011;59614;51.012;-1.648;2023-08-17T07:58:55;22.45;;;14.23;;
71108;SDS011;59614;51.012;-1.648;2023-08-17T08:01:20;23.45;;;15.27;;
71108;SDS011;59614;51.012;-1.648;2023-08-17T08:03:46;21.50;;;16.00;;
71108;SDS011;59614;51.012;-1.648;2023-08-17T08:06:11;25.80;;;15.18;;
71108;SDS011;59614;51.012;-1.648;2023-08-17T08:08:37;25.88;;;14.60;;
71108;SDS011;59614;51.012;-1.648;2023-08-17T08:11:03;22.40;;;15.32;;
71108;SDS011;59614;51.012;-1.648;2023-08-17T08:13:29;20.77;;;15.88;;
71108;SDS011;59614;51.012;-1.648;2023-08-17T08:15:55;24.35;;;14.98;;
71108;SDS011;59614;51.012;-1.648;2023-08-17T08:18:21;24.70;;;14.63;;
71108;SDS011;59614;51.012;-1.648;2023-08-17T08:20:47;22.85;;;13.90;;
71108;SDS011;59614;51.012;-1.648;2023-08-17T08:23:13;27.25;;;14.63;;
71108;SDS011;59614;51.012;-1.648;2023-08-17T08:25:39;18.23;;;13.48;;
71108;SDS011;59614;51.012;-1.648;2023-08-17T08:28:04;22.48;;;14.70;;
71108;SDS011;59614;51.012;-1.648;2023-08-17T08:30:30;21.52;;;14.95;;
71108;SDS011;59614;51.012;-1.648;2023-08-17T08:32:55;21.60;;;13.30;;
71108;SDS011;59614;51.012;-1.648;2023-08-17T08:35:23;18.92;;;12.73;;
71108;SDS011;59614;51.012;-1.648;2023-08-17T08:37:49;19.40;;;11.45;;
71108;SDS011;59614;51.012;-1.648;2023-08-17T08:40:15;16.98;;;11.68;;
71108;SDS011;59614;51.012;-1.648;2023-08-17T08:42:42;22.58;;;14.15;;
71108;SDS011;59614;51.012;-1.648;2023-08-17T08:45:08;20.98;;;12.80;;
71108;SDS011;59614;51.012;-1.648;2023-08-17T08:47:35;24.77;;;13.55;;
71108;SDS011;59614;51.012;-1.648;2023-08-17T08:50:02;18.40;;;11.38;;
71108;SDS011;59614;51.012;-1.648;2023-08-17T08:52:37;21.38;;;10.65;;
71108;SDS011;59614;51.012;-1.648;2023-08-17T08:55:11;20.08;;;11.65;;
71108;SDS011;59614;51.012;-1.648;2023-08-17T08:57:41;22.48;;;11.48;;
71108;SDS011;59614;51.012;-1.648;2023-08-17T09:00:07;19.65;;;11.40;;
71108;SDS011;59614;51.012;-1.648;2023-08-17T09:02:35;19.83;;;9.50;;
71108;SDS011;59614;51.012;-1.648;2023-08-17T09:05:01;21.40;;;10.65;;
71108;SDS011;59614;51.012;-1.648;2023-08-17T09:07:30;20.65;;;9.90;;
71108;SDS011;59614;51.012;-1.648;2023-08-17T09:09:57;19.65;;;8.90;;
71108;SDS011;59614;51.012;-1.648;2023-08-17T09:12:22;16.83;;;8.52;;
71108;SDS011;59614;51.012;-1.648;2023-08-17T09:14:48;15.85;;;8.02;;
71108;SDS011;59614;51.012;-1.648;2023-08-17T09:17:13;17.02;;;8.43;;
71108;SDS011;59614;51.012;-1.648;2023-08-17T09:19:39;18.50;;;7.93;;
71108;SDS011;59614;51.012;-1.648;2023-08-17T09:22:04;16.75;;;7.75;;
71108;SDS011;59614;51.012;-1.648;2023-08-17T09:24:33;13.73;;;6.40;;
71108;SDS011;59614;51.012;-1.648;2023-08-17T09:27:05;19.35;;;7.07;;
71108;SDS011;59614;51.012;-1.648;2023-08-17T09:29:36;8.75;;;6.03;;
71108;SDS011;59614;51.012;-1.648;2023-08-17T09:32:06;13.65;;;6.60;;
71108;SDS011;59614;51.012;-1.648;2023-08-17T09:34:32;15.65;;;7.30;;
71108;SDS011;59614;51.012;-1.648;2023-08-17T09:37:04;11.95;;;6.68;;
71108;SDS011;59614;51.012;-1.648;2023-08-17T09:39:30;13.95;;;7.20;;
71108;SDS011;59614;51.012;-1.648;2023-08-17T09:41:56;13.65;;;6.57;;
71108;SDS011;59614;51.012;-1.648;2023-08-17T09:44:21;14.40;;;6.75;;
71108;SDS011;59614;51.012;-1.648;2023-08-17T09:46:47;11.93;;;6.10;;
71108;SDS011;59614;51.012;-1.648;2023-08-17T09:49:13;12.60;;;6.10;;
71108;SDS011;59614;51.012;-1.648;2023-08-17T09:51:41;11.55;;;5.82;;
71108;SDS011;59614;51.012;-1.648;2023-08-17T09:54:07;16.10;;;6.00;;
71108;SDS011;59614;51.012;-1.648;2023-08-17T09:56:33;13.45;;;6.00;;
71108;SDS011;59614;51.012;-1.648;2023-08-17T09:58:59;11.70;;;5.63;;
71108;SDS011;59614;51.012;-1.648;2023-08-17T10:01:25;10.07;;;5.50;;
71108;SDS011;59614;51.012;-1.648;2023-08-17T10:03:54;11.52;;;5.63;;
71108;SDS011;59614;51.012;-1.648;2023-08-17T10:06:22;10.65;;;5.75;;
71108;SDS011;59614;51.012;-1.648;2023-08-17T10:08:51;11.93;;;5.78;;
71108;SDS011;59614;51.012;-1.648;2023-08-17T10:11:19;11.43;;;5.45;;
71108;SDS011;59614;51.012;-1.648;2023-08-17T10:13:51;11.23;;;4.93;;
71108;SDS011;59614;51.012;-1.648;2023-08-17T10:16:22;12.32;;;5.07;;
71108;SDS011;59614;51.012;-1.648;2023-08-17T10:18:53;10.50;;;5.05;;
71108;SDS011;59614;51.012;-1.648;2023-08-17T10:21:40;9.25;;;5.38;;
71108;SDS011;59614;51.012;-1.648;2023-08-17T10:24:11;11.65;;;5.50;;
71108;SDS011;59614;51.012;-1.648;2023-08-17T10:26:37;11.15;;;4.50;;
71108;SDS011;59614;51.012;-1.648;2023-08-17T10:29:04;9.80;;;5.05;;
71108;SDS011;59614;51.012;-1.648;2023-08-17T10:31:33;9.63;;;4.60;;
71108;SDS011;59614;51.012;-1.648;2023-08-17T10:34:00;9.48;;;5.03;;
71108;SDS011;59614;51.012;-1.648;2023-08-17T10:36:27;8.43;;;4.32;;
71108;SDS011;59614;51.012;-1.648;2023-08-17T10:41:48;11.60;;;4.30;;
71108;SDS011;59614;51.012;-1.648;2023-08-17T10:44:15;8.75;;;3.85;;
71108;SDS011;59614;51.012;-1.648;2023-08-17T10:46:42;10.30;;;4.00;;
71108;SDS011;59614;51.012;-1.648;2023-08-17T10:49:25;11.13;;;4.25;;
71108;SDS011;59614;51.012;-1.648;2023-08-17T10:52:03;9.10;;;3.60;;
71108;SDS011;59614;51.012;-1.648;2023-08-17T10:54:39;7.35;;;3.00;;
71108;SDS011;59614;51.012;-1.648;2023-08-17T11:02:36;9.20;;;3.80;;
71108;SDS011;59614;51.012;-1.648;2023-08-17T11:05:02;6.73;;;3.83;;
71108;SDS011;59614;51.012;-1.648;2023-08-17T11:07:38;11.27;;;4.18;;
71108;SDS011;59614;51.012;-1.648;2023-08-17T11:12:44;16.15;;;4.15;;
71108;SDS011;59614;51.012;-1.648;2023-08-17T11:15:10;7.30;;;3.80;;
71108;SDS011;59614;51.012;-1.648;2023-08-17T11:17:35;11.13;;;4.25;;
71108;SDS011;59614;51.012;-1.648;2023-08-17T11:20:01;8.10;;;3.72;;
71108;SDS011;59614;51.012;-1.648;2023-08-17T11:22:27;7.80;;;3.72;;
71108;SDS011;59614;51.012;-1.648;2023-08-17T11:24:53;15.93;;;3.80;;
71108;SDS011;59614;51.012;-1.648;2023-08-17T11:27:18;9.27;;;4.05;;
71108;SDS011;59614;51.012;-1.648;2023-08-17T11:29:45;8.60;;;3.80;;
71108;SDS011;59614;51.012;-1.648;2023-08-17T11:32:10;8.43;;;4.10;;
71108;SDS011;59614;51.012;-1.648;2023-08-17T11:34:37;7.25;;;3.72;;
71108;SDS011;59614;51.012;-1.648;2023-08-17T11:37:03;8.02;;;3.42;;
71108;SDS011;59614;51.012;-1.648;2023-08-17T11:39:32;10.25;;;3.47;;
71108;SDS011;59614;51.012;-1.648;2023-08-17T11:41:59;8.93;;;3.80;;
71108;SDS011;59614;51.012;-1.648;2023-08-17T11:44:25;9.98;;;4.20;;
71108;SDS011;59614;51.012;-1.648;2023-08-17T11:46:50;9.43;;;3.95;;
71108;SDS011;59614;51.012;-1.648;2023-08-17T11:49:16;9.05;;;3.90;;
71108;SDS011;59614;51.012;-1.648;2023-08-17T11:51:42;6.63;;;3.47;;
71108;SDS011;59614;51.012;-1.648;2023-08-17T11:54:07;11.15;;;3.45;;
71108;SDS011;59614;51.012;-1.648;2023-08-17T11:56:33;10.57;;;3.08;;
71108;SDS011;59614;51.012;-1.648;2023-08-17T11:58:59;5.97;;;3.20;;
71108;SDS011;59614;51.012;-1.648;2023-08-17T12:01:33;10.57;;;3.05;;
71108;SDS011;59614;51.012;-1.648;2023-08-17T12:04:00;9.00;;;3.08;;
71108;SDS011;59614;51.012;-1.648;2023-08-17T12:06:25;12.63;;;3.10;;
71108;SDS011;59614;51.012;-1.648;2023-08-17T12:08:51;9.65;;;3.63;;
71108;SDS011;59614;51.012;-1.648;2023-08-17T12:11:16;6.03;;;3.00;;
71108;SDS011;59614;51.012;-1.648;2023-08-17T12:13:48;8.15;;;3.25;;
71108;SDS011;59614;51.012;-1.648;2023-08-17T12:16:20;7.05;;;2.95;;
71108;SDS011;59614;51.012;-1.648;2023-08-17T12:18:47;9.55;;;3.20;;
71108;SDS011;59614;51.012;-1.648;2023-08-17T12:21:14;8.82;;;3.20;;
71108;SDS011;59614;51.012;-1.648;2023-08-17T12:23:40;8.77;;;3.03;;
71108;SDS011;59614;51.012;-1.648;2023-08-17T12:26:07;6.40;;;3.13;;
71108;SDS011;59614;51.012;-1.648;2023-08-17T12:28:32;6.78;;;2.97;;
71108;SDS011;59614;51.012;-1.648;2023-08-17T12:30:59;11.25;;;3.05;;
71108;SDS011;59614;51.012;-1.648;2023-08-17T12:33:25;7.10;;;3.03;;
71108;SDS011;59614;51.012;-1.648;2023-08-17T12:35:50;8.95;;;2.90;;
71108;SDS011;59614;51.012;-1.648;2023-08-17T12:38:16;11.13;;;2.83;;
71108;SDS011;59614;51.012;-1.648;2023-08-17T12:40:41;7.30;;;3.00;;
71108;SDS011;59614;51.012;-1.648;2023-08-17T12:43:07;6.88;;;2.78;;
71108;SDS011;59614;51.012;-1.648;2023-08-17T12:45:32;7.60;;;3.08;;
71108;SDS011;59614;51.012;-1.648;2023-08-17T12:47:59;7.30;;;2.60;;
71108;SDS011;59614;51.012;-1.648;2023-08-17T12:50:25;7.28;;;2.50;;
71108;SDS011;59614;51.012;-1.648;2023-08-17T12:52:50;8.45;;;2.70;;
71108;SDS011;59614;51.012;-1.648;2023-08-17T12:55:16;6.45;;;2.70;;
71108;SDS011;59614;51.012;-1.648;2023-08-17T12:57:41;5.65;;;2.50;;
71108;SDS011;59614;51.012;-1.648;2023-08-17T13:00:07;6.25;;;2.67;;
71108;SDS011;59614;51.012;-1.648;2023-08-17T13:02:33;5.78;;;2.53;;
71108;SDS011;59614;51.012;-1.648;2023-08-17T13:04:59;6.55;;;2.60;;
71108;SDS011;59614;51.012;-1.648;2023-08-17T13:07:24;8.40;;;2.50;;
71108;SDS011;59614;51.012;-1.648;2023-08-17T13:09:50;6.30;;;2.58;;
71108;SDS011;59614;51.012;-1.648;2023-08-17T13:12:15;6.10;;;2.67;;
71108;SDS011;59614;51.012;-1.648;2023-08-17T13:14:41;6.55;;;2.55;;
71108;SDS011;59614;51.012;-1.648;2023-08-17T13:17:06;10.27;;;2.67;;
71108;SDS011;59614;51.012;-1.648;2023-08-17T13:19:31;5.35;;;2.83;;
71108;SDS011;59614;51.012;-1.648;2023-08-17T13:21:57;6.55;;;2.67;;
71108;SDS011;59614;51.012;-1.648;2023-08-17T13:24:22;4.63;;;2.45;;
71108;SDS011;59614;51.012;-1.648;2023-08-17T13:26:48;4.95;;;2.33;;
71108;SDS011;59614;51.012;-1.648;2023-08-17T13:29:17;6.70;;;2.47;;
71108;SDS011;59614;51.012;-1.648;2023-08-17T13:31:43;7.43;;;2.80;;
71108;SDS011;59614;51.012;-1.648;2023-08-17T13:34:09;8.65;;;2.50;;
71108;SDS011;59614;51.012;-1.648;2023-08-17T13:36:36;9.15;;;2.63;;
71108;SDS011;59614;51.012;-1.648;2023-08-17T13:39:02;6.03;;;2.53;;
71108;SDS011;59614;51.012;-1.648;2023-08-17T13:41:27;8.65;;;2.50;;
71108;SDS011;59614;51.012;-1.648;2023-08-17T13:43:53;8.38;;;2.88;;
71108;SDS011;59614;51.012;-1.648;2023-08-17T13:46:18;7.80;;;2.60;;
71108;SDS011;59614;51.012;-1.648;2023-08-17T13:48:44;5.68;;;2.80;;
71108;SDS011;59614;51.012;-1.648;2023-08-17T13:51:09;4.18;;;2.40;;
71108;SDS011;59614;51.012;-1.648;2023-08-17T13:53:36;7.20;;;2.65;;
71108;SDS011;59614;51.012;-1.648;2023-08-17T13:56:01;8.40;;;2.60;;
71108;SDS011;59614;51.012;-1.648;2023-08-17T13:58:27;6.07;;;2.40;;
71108;SDS011;59614;51.012;-1.648;2023-08-17T14:00:52;5.00;;;2.30;;
71108;SDS011;59614;51.012;-1.648;2023-08-17T14:03:18;8.88;;;2.75;;
71108;SDS011;59614;51.012;-1.648;2023-08-17T14:05:44;7.78;;;2.50;;
71108;SDS011;59614;51.012;-1.648;2023-08-17T14:08:09;6.22;;;2.78;;
71108;SDS011;59614;51.012;-1.648;2023-08-17T14:10:36;6.93;;;2.42;;
71108;SDS011;59614;51.012;-1.648;2023-08-17T14:13:01;5.63;;;2.70;;
71108;SDS011;59614;51.012;-1.648;2023-08-17T14:15:27;9.57;;;2.45;;
71108;SDS011;59614;51.012;-1.648;2023-08-17T14:17:52;9.80;;;2.60;;
71108;SDS011;59614;51.012;-1.648;2023-08-17T14:20:18;6.75;;;2.88;;
71108;SDS011;59614;51.012;-1.648;2023-08-17T14:22:43;6.10;;;2.65;;
71108;SDS011;59614;51.012;-1.648;2023-08-17T14:25:09;11.50;;;2.80;;
71108;SDS011;59614;51.012;-1.648;2023-08-17T14:27:34;12.63;;;2.90;;
71108;SDS011;59614;51.012;-1.648;2023-08-17T14:30:00;8.63;;;2.67;;
71108;SDS011;59614;51.012;-1.648;2023-08-17T14:32:27;10.07;;;2.70;;
71108;SDS011;59614;51.012;-1.648;2023-08-17T14:34:54;7.68;;;2.60;;
71108;SDS011;59614;51.012;-1.648;2023-08-17T14:37:19;5.72;;;2.30;;